Time;durP1;ratioP1;P1;durP2;ratioP2;P2;SDS_P1;SDS_P2;PMS_P1;PMS_P2;Temp;Humidity;BMP_temperature;BMP_pressure;BME280_temperature;BME280_humidity;BME280_pressure;Samples;Min_cycle;Max_cycle;Signal;HPM_P1;HPM_P2
2022/09/24 00:01:39;;;;;;;10.8;17.8;;;;;;;5;86.2;98910;;;;
2022/09/24 00:12:39;;;;;;;10.8;17.8;;;;;;;4.9;86;98910;;;;
2022/09/24 00:23:39;;;;;;;9.4;15.7;;;;;;;4.7;86;98900;;;;
2022/09/24 00:33:39;;;;;;;9.4;15.7;;;;;;;4.6;86.7;98900;;;;
2022/09/24 00:44:39;;;;;;;9.4;15.7;;;;;;;4.6;87.2;98900;;;;
2022/09/24 00:54:41;;;;;;;8.1;12.8;;;;;;;4.6;87.5;98890;;;;
2022/09/24 01:05:39;;;;;;;8.1;12.8;;;;;;;4.6;87.4;98880;;;;
2022/09/24 01:16:39;;;;;;;8.1;12.8;;;;;;;4.6;87.4;98870;;;;
2022/09/24 01:27:40;;;;;;;10.1;16.8;;;;;;;4.5;87.1;98860;;;;
2022/09/24 01:37:39;;;;;;;10.1;16.8;;;;;;;4.4;86.9;98850;;;;
2022/09/24 01:48:39;;;;;;;9.8;16;;;;;;;4.3;86.9;98850;;;;
2022/09/24 01:59:39;;;;;;;9.8;16;;;;;;;4.2;86.9;98850;;;;
2022/09/24 02:09:39;;;;;;;9.8;16;;;;;;;4.1;87.4;98850;;;;
2022/09/24 02:20:39;;;;;;;8.8;15.4;;;;;;;4;87.6;98850;;;;
2022/09/24 02:30:39;;;;;;;8.8;15.4;;;;;;;4;87.5;98850;;;;
2022/09/24 02:40:39;;;;;;;8.8;15.4;;;;;;;3.8;87;98840;;;;
2022/09/24 02:51:39;;;;;;;8.9;14.4;;;;;;;3.7;86.8;98830;;;;
2022/09/24 03:01:39;;;;;;;8.9;14.4;;;;;;;3.6;86.6;98820;;;;
2022/09/24 03:12:41;;;;;;;8.9;14.4;;;;;;;3.6;86.6;98820;;;;
2022/09/24 03:22:39;;;;;;;7.3;13.4;;;;;;;3.5;86.8;98820;;;;
2022/09/24 03:33:40;;;;;;;7.3;13.4;;;;;;;3.5;87.1;98810;;;;
2022/09/24 03:44:39;;;;;;;7.3;13.4;;;;;;;3.6;87.4;98810;;;;
2022/09/24 03:54:39;;;;;;;8.3;16.5;;;;;;;3.7;87.4;98810;;;;
2022/09/24 04:04:39;;;;;;;8.3;16.5;;;;;;;3.7;87.4;98810;;;;
2022/09/24 04:14:39;;;;;;;8.3;16.5;;;;;;;3.7;87.9;98810;;;;
2022/09/24 04:24:39;;;;;;;8.9;13.6;;;;;;;3.8;88;98800;;;;
2022/09/24 04:35:39;;;;;;;8.9;13.6;;;;;;;3.9;88.1;98800;;;;
2022/09/24 04:46:39;;;;;;;8.9;14;;;;;;;4.1;88.1;98800;;;;
2022/09/24 04:56:39;;;;;;;8.9;14;;;;;;;4.2;88.2;98810;;;;
2022/09/24 05:07:39;;;;;;;8.9;14;;;;;;;4.4;88.2;98800;;;;
2022/09/24 05:18:40;;;;;;;10.6;17.8;;;;;;;4.7;88.3;98790;;;;
2022/09/24 05:29:39;;;;;;;10.6;17.8;;;;;;;5;88.3;98780;;;;
2022/09/24 05:39:39;;;;;;;10.6;17.8;;;;;;;5.5;88.5;98780;;;;
2022/09/24 05:50:39;;;;;;;10.8;17.9;;;;;;;6;88.6;98790;;;;
2022/09/24 06:01:39;;;;;;;10.8;17.9;;;;;;;6.8;88.7;98790;;;;
2022/09/24 06:12:39;;;;;;;10.8;17.9;;;;;;;7.3;88.1;98790;;;;
2022/09/24 06:23:39;;;;;;;15.2;20.4;;;;;;;7.8;87.1;98800;;;;
2022/09/24 06:33:39;;;;;;;15.2;20.4;;;;;;;8.5;86.8;98800;;;;
2022/09/24 06:43:39;;;;;;;15.2;20.4;;;;;;;9.1;85.2;98800;;;;
2022/09/24 06:54:39;;;;;;;19.1;24.6;;;;;;;9.7;83.6;98800;;;;
2022/09/24 07:04:39;;;;;;;19.1;24.6;;;;;;;10;81.9;98800;;;;
2022/09/24 07:15:39;;;;;;;19.1;24.6;;;;;;;10.4;80.1;98810;;;;
2022/09/24 07:25:39;;;;;;;18.5;21.5;;;;;;;10.5;79.4;98810;;;;
2022/09/24 07:35:39;;;;;;;18.5;21.5;;;;;;;11;78.6;98820;;;;
2022/09/24 07:46:39;;;;;;;16.3;19.6;;;;;;;11.5;78.4;98820;;;;
2022/09/24 07:57:39;;;;;;;16.3;19.6;;;;;;;12.3;77.8;98820;;;;
2022/09/24 08:07:39;;;;;;;16.3;19.6;;;;;;;12.6;76.8;98820;;;;
2022/09/24 08:18:39;;;;;;;14.9;19;;;;;;;13.2;76.1;98820;;;;
2022/09/24 08:29:39;;;;;;;14.9;19;;;;;;;13.7;74.4;98810;;;;
2022/09/24 08:39:39;;;;;;;14.9;19;;;;;;;14.1;72.9;98820;;;;
2022/09/24 08:50:40;;;;;;;11.8;15.6;;;;;;;14.7;71.8;98810;;;;
2022/09/24 09:01:39;;;;;;;11.8;15.6;;;;;;;15.3;70.4;98810;;;;
2022/09/24 09:12:39;;;;;;;11.8;15.6;;;;;;;15.8;68.9;98800;;;;
2022/09/24 09:23:39;;;;;;;8.9;13.3;;;;;;;16;67.1;98780;;;;
2022/09/24 09:33:39;;;;;;;8.9;13.3;;;;;;;16.4;66.1;98780;;;;
2022/09/24 09:43:39;;;;;;;8.9;13.3;;;;;;;16.7;64.4;98770;;;;
2022/09/24 09:53:39;;;;;;;6.8;9.1;;;;;;;17;60.7;98760;;;;
2022/09/24 10:03:39;;;;;;;6.8;9.1;;;;;;;16.7;59.4;98740;;;;
2022/09/24 10:14:39;;;;;;;6.8;9.1;;;;;;;16.8;56.6;98740;;;;
2022/09/24 10:25:39;;;;;;;4.4;8.4;;;;;;;17;54.7;98730;;;;
2022/09/24 10:35:39;;;;;;;4.4;8.4;;;;;;;17.2;56.5;98730;;;;
2022/09/24 10:46:39;;;;;;;3.6;6;;;;;;;17.6;56.8;98730;;;;
2022/09/24 10:57:39;;;;;;;3.6;6;;;;;;;17.3;55;98720;;;;
2022/09/24 11:08:39;;;;;;;3.6;6;;;;;;;17.3;54.2;98720;;;;
2022/09/24 11:18:39;;;;;;;3.4;5.5;;;;;;;17.6;56.1;98720;;;;
2022/09/24 11:28:39;;;;;;;3.4;5.5;;;;;;;18.1;52.9;98710;;;;
2022/09/24 11:39:40;;;;;;;3.4;5.5;;;;;;;17.8;52;98690;;;;
2022/09/24 11:50:39;;;;;;;2.2;4.3;;;;;;;18.5;47.8;98690;;;;
2022/09/24 12:00:39;;;;;;;2.2;4.3;;;;;;;19.5;48;98680;;;;
2022/09/24 12:11:40;;;;;;;2.2;4.3;;;;;;;19.5;43.8;98670;;;;
2022/09/24 12:21:39;;;;;;;2;5;;;;;;;19.8;45;98670;;;;
2022/09/24 12:42:39;;;;;;;2;5;;;;;;;19;47.3;98660;;;;
2022/09/24 12:52:39;;;;;;;17.8;35.3;;;;;;;18.5;47.6;98660;;;;
2022/09/24 13:02:39;;;;;;;17.8;35.3;;;;;;;18.4;48;98650;;;;
2022/09/24 13:13:41;;;;;;;17.8;35.3;;;;;;;18.5;48.7;98640;;;;
2022/09/24 13:24:39;;;;;;;2.2;5.1;;;;;;;18.4;50.6;98630;;;;
2022/09/24 13:35:40;;;;;;;2.2;5.1;;;;;;;17.6;50.2;98620;;;;
2022/09/24 13:45:40;;;;;;;2.2;5.1;;;;;;;17.7;51.1;98610;;;;
2022/09/24 13:56:39;;;;;;;2.6;4.6;;;;;;;17.5;52.1;98600;;;;
2022/09/24 14:06:39;;;;;;;2.6;4.6;;;;;;;17.8;51.1;98600;;;;
2022/09/24 14:17:39;;;;;;;2.7;6.3;;;;;;;18.1;50.4;98580;;;;
2022/09/24 14:27:40;;;;;;;2.7;6.3;;;;;;;17.6;51.1;98580;;;;
2022/09/24 14:38:39;;;;;;;2.7;6.3;;;;;;;17.7;51.1;98580;;;;
2022/09/24 14:48:39;;;;;;;3.4;5.9;;;;;;;17.9;52.9;98580;;;;
2022/09/24 14:58:39;;;;;;;3.4;5.9;;;;;;;17.9;53.1;98580;;;;
2022/09/24 15:08:39;;;;;;;3.4;5.9;;;;;;;17.1;53.5;98580;;;;
2022/09/24 15:19:42;;;;;;;3.3;5.7;;;;;;;17.3;54.6;98580;;;;
2022/09/24 15:30:40;;;;;;;3.3;5.7;;;;;;;19;52.2;98570;;;;
2022/09/24 15:40:39;;;;;;;3.3;5.7;;;;;;;20;49.6;98570;;;;
2022/09/24 15:50:39;;;;;;;4.5;7;;;;;;;18.2;51.9;98570;;;;
2022/09/24 16:01:39;;;;;;;4.5;7;;;;;;;16.8;55;98560;;;;
2022/09/24 16:12:39;;;;;;;4.5;7;;;;;;;16;57.5;98570;;;;
2022/09/24 16:22:39;;;;;;;5.9;8.8;;;;;;;15.3;58.7;98580;;;;
2022/09/24 16:33:39;;;;;;;5.9;8.8;;;;;;;14.6;61.5;98580;;;;
2022/09/24 16:43:39;;;;;;;5.9;8.8;;;;;;;14;65.6;98590;;;;
2022/09/24 16:53:39;;;;;;;13.8;17.5;;;;;;;13.6;66.7;98580;;;;
2022/09/24 17:04:39;;;;;;;13.8;17.5;;;;;;;13.1;68.8;98580;;;;
2022/09/24 17:14:39;;;;;;;13.8;17.5;;;;;;;12.7;70.6;98590;;;;
2022/09/24 17:25:39;;;;;;;14.4;18.3;;;;;;;12.4;72.5;98590;;;;
2022/09/24 17:35:39;;;;;;;14.4;18.3;;;;;;;12.3;72.8;98600;;;;
2022/09/24 17:46:39;;;;;;;14;23.3;;;;;;;12.3;72.9;98610;;;;
2022/09/24 17:56:39;;;;;;;14;23.3;;;;;;;12.2;72.5;98610;;;;
2022/09/24 18:06:39;;;;;;;14;23.3;;;;;;;12;73.5;98610;;;;
2022/09/24 18:16:39;;;;;;;14.4;19.3;;;;;;;11.7;73.7;98610;;;;
2022/09/24 18:26:39;;;;;;;14.4;19.3;;;;;;;11.4;75.3;98610;;;;
2022/09/24 18:37:39;;;;;;;14.4;19.3;;;;;;;11.2;74.8;98610;;;;
2022/09/24 18:48:39;;;;;;;16;19.5;;;;;;;10.9;75;98620;;;;
2022/09/24 18:58:39;;;;;;;16;19.5;;;;;;;10.5;76.3;98620;;;;
2022/09/24 19:08:39;;;;;;;16;19.5;;;;;;;10.8;77.9;98630;;;;
2022/09/24 19:18:39;;;;;;;11.6;16.2;;;;;;;11;77;98630;;;;
2022/09/24 19:29:41;;;;;;;11.6;16.2;;;;;;;11.2;76.2;98640;;;;
2022/09/24 19:40:39;;;;;;;11.6;16.2;;;;;;;11.4;75.3;98630;;;;
2022/09/24 19:51:39;;;;;;;9.5;12.2;;;;;;;11.1;74.9;98640;;;;
2022/09/24 20:01:41;;;;;;;9.5;12.2;;;;;;;10.9;75.1;98650;;;;
2022/09/24 20:12:41;;;;;;;9.5;12.2;;;;;;;10.7;75.4;98640;;;;
2022/09/24 20:23:39;;;;;;;10;15.5;;;;;;;10.5;75;98640;;;;
2022/09/24 20:33:41;;;;;;;10;15.5;;;;;;;10.1;75.5;98640;;;;
2022/09/24 20:43:39;;;;;;;10;15.5;;;;;;;9.9;76.6;98640;;;;
2022/09/24 20:54:39;;;;;;;11.1;13.3;;;;;;;9.5;77;98640;;;;
2022/09/24 21:05:39;;;;;;;11.1;13.3;;;;;;;9.2;78.8;98630;;;;
2022/09/24 21:16:39;;;;;;;9.4;12.9;;;;;;;9;79.3;98640;;;;
2022/09/24 21:26:39;;;;;;;9.4;12.9;;;;;;;8.8;79.3;98630;;;;
2022/09/24 21:36:41;;;;;;;9.4;12.9;;;;;;;8.6;82.1;98630;;;;
2022/09/24 21:46:41;;;;;;;12.4;17.5;;;;;;;8.5;84.4;98630;;;;
2022/09/24 21:57:39;;;;;;;12.4;17.5;;;;;;;8.5;84.9;98630;;;;
2022/09/24 22:07:39;;;;;;;12.4;17.5;;;;;;;8.4;84.6;98630;;;;
2022/09/24 22:18:39;;;;;;;9.6;15;;;;;;;8.3;84.5;98630;;;;
2022/09/24 22:29:39;;;;;;;9.6;15;;;;;;;8.2;85;98620;;;;
2022/09/24 22:39:39;;;;;;;9.6;15;;;;;;;8.2;84.4;98620;;;;
2022/09/24 22:49:39;;;;;;;10;14;;;;;;;8.1;84.2;98620;;;;
2022/09/24 23:00:40;;;;;;;10;14;;;;;;;8.1;83.8;98620;;;;
2022/09/24 23:11:39;;;;;;;10;14;;;;;;;8;84;98620;;;;
2022/09/24 23:21:40;;;;;;;8.2;18.3;;;;;;;8.1;83.8;98630;;;;
2022/09/24 23:31:39;;;;;;;8.2;18.3;;;;;;;8;83.7;98620;;;;
2022/09/24 23:41:39;;;;;;;8.2;18.3;;;;;;;7.8;84.2;98620;;;;
2022/09/24 23:51:39;;;;;;;7.8;11.8;;;;;;;7.8;84.7;98620;;;;
